Time;durP1;ratioP1;P1;durP2;ratioP2;P2;SDS_P1;SDS_P2;PMS_P1;PMS_P2;Temp;Humidity;BMP_temperature;BMP_pressure;BME280_temperature;BME280_humidity;BME280_pressure;Samples;Min_cycle;Max_cycle;Signal;HPM_P1;HPM_P2
2022/09/23 00:02:00;;;;;;;9.07;3.25;;;;;;;12.77;51.51;99041.47;4471039;32;20428;-87
2022/09/23 00:04:26;;;;;;;11.98;3.35;;;;;;;12.77;51.71;99039.69;4456907;32;20136;-87
2022/09/23 00:06:51;;;;;;;10.15;3.35;;;;;;;12.78;51.69;99037.88;4471008;32;20119;-87
2022/09/23 00:09:17;;;;;;;9.38;3.45;;;;;;;12.76;51.67;99037.97;4471046;32;20352;-87
2022/09/23 00:11:42;;;;;;;10.45;2.83;;;;;;;12.80;51.61;99030.69;4471000;32;20154;-84
2022/09/23 00:14:08;;;;;;;10.38;3.17;;;;;;;12.78;51.90;99022.00;4471078;32;20486;-85
2022/09/23 00:16:34;;;;;;;10.38;3.35;;;;;;;12.79;52.02;99027.22;4456929;32;20105;-85
2022/09/23 00:19:03;;;;;;;9.48;2.85;;;;;;;12.68;52.25;99031.44;4456844;32;20122;-85
2022/09/23 00:21:28;;;;;;;9.32;3.45;;;;;;;12.69;52.39;99036.66;4471278;32;20106;-85
2022/09/23 00:23:54;;;;;;;11.40;4.80;;;;;;;12.65;52.42;99029.84;4471210;32;20364;-84
2022/09/23 00:26:21;;;;;;;9.02;2.90;;;;;;;12.69;52.40;99028.72;4457034;32;20097;-84
2022/09/23 00:28:47;;;;;;;10.18;3.45;;;;;;;12.66;52.52;99023.59;4457003;32;20435;-84
2022/09/23 00:31:21;;;;;;;10.63;3.87;;;;;;;12.60;52.94;99023.97;4470891;32;20426;-84
2022/09/23 00:33:46;;;;;;;10.85;3.58;;;;;;;12.62;53.10;99026.53;4470863;32;20073;-84
2022/09/23 00:36:16;;;;;;;10.57;3.70;;;;;;;12.65;53.16;99028.97;4456432;32;20134;-85
2022/09/23 00:38:43;;;;;;;10.40;3.90;;;;;;;12.23;54.71;99026.13;4456854;32;20100;-84
2022/09/23 00:41:08;;;;;;;10.00;3.53;;;;;;;12.37;54.49;99020.88;4456613;32;20072;-85
2022/09/23 00:43:43;;;;;;;9.45;3.65;;;;;;;12.48;54.13;99012.34;4457548;32;20379;-84
2022/09/23 00:46:12;;;;;;;10.23;3.62;;;;;;;12.56;54.09;99014.53;4472452;32;20120;-84
2022/09/23 00:48:40;;;;;;;10.98;3.95;;;;;;;12.47;54.41;99015.06;4458589;32;20521;-84
2022/09/23 00:51:08;;;;;;;11.65;3.85;;;;;;;12.56;54.41;99007.44;4472499;32;20096;-84
2022/09/23 00:53:33;;;;;;;11.00;3.83;;;;;;;12.59;54.45;99007.28;4458332;32;20118;-84
2022/09/23 00:56:02;;;;;;;10.07;3.50;;;;;;;12.59;54.54;99006.41;4458522;32;20113;-85
2022/09/23 00:58:31;;;;;;;11.82;4.00;;;;;;;12.58;54.70;99007.34;4472931;32;20097;-84
2022/09/23 01:00:58;;;;;;;11.02;3.60;;;;;;;12.58;54.85;99007.34;4458483;32;20115;-84
2022/09/23 01:03:24;;;;;;;10.02;3.78;;;;;;;12.57;54.87;99006.50;4458453;32;20107;-85
2022/09/23 01:05:50;;;;;;;10.82;4.05;;;;;;;12.56;54.92;99010.06;4458519;32;20092;-85
2022/09/23 01:08:16;;;;;;;9.43;3.35;;;;;;;12.56;55.00;99007.44;4445310;32;20138;-85
2022/09/23 01:10:47;;;;;;;10.25;3.50;;;;;;;12.57;55.14;99019.72;4458207;32;20160;-85
2022/09/23 01:13:26;;;;;;;11.45;3.83;;;;;;;12.55;55.33;99018.94;4458136;32;20089;-85
2022/09/23 01:15:51;;;;;;;11.30;4.03;;;;;;;12.52;55.47;99018.28;4472362;32;20156;-85
2022/09/23 01:18:25;;;;;;;11.35;4.35;;;;;;;12.42;55.73;99020.63;4472332;32;20096;-86
2022/09/23 01:20:59;;;;;;;12.93;4.32;;;;;;;12.47;55.71;99015.06;4472498;32;20110;-85
2022/09/23 01:23:46;;;;;;;10.63;3.92;;;;;;;12.43;55.94;99018.81;4472468;32;20410;-85
2022/09/23 01:26:33;;;;;;;10.20;4.00;;;;;;;12.43;55.89;99013.53;4472370;32;20154;-85
2022/09/23 01:29:23;;;;;;;11.15;4.47;;;;;;;12.46;55.92;99021.28;4472456;32;20523;-85
2022/09/23 01:32:10;;;;;;;10.88;4.12;;;;;;;12.49;56.06;99014.03;4458284;32;20088;-85
2022/09/23 01:34:39;;;;;;;10.85;3.92;;;;;;;12.49;56.14;99015.81;4458102;32;20089;-85
2022/09/23 01:37:24;;;;;;;10.70;4.37;;;;;;;12.46;56.13;99011.56;4472204;32;20135;-85
2022/09/23 01:40:05;;;;;;;10.57;4.10;;;;;;;12.45;56.25;99011.66;4472266;32;20243;-84
2022/09/23 01:42:39;;;;;;;12.13;4.90;;;;;;;12.44;56.35;99009.94;4472184;32;20088;-84
2022/09/23 01:45:45;;;;;;;13.65;4.47;;;;;;;12.39;56.39;99013.72;4458045;32;20160;-84
2022/09/23 01:48:13;;;;;;;10.88;4.47;;;;;;;12.27;56.55;99017.06;4449091;32;20104;-86
2022/09/23 01:50:57;;;;;;;11.82;4.32;;;;;;;12.15;56.66;99009.87;4472226;32;20088;-83
2022/09/23 01:53:27;;;;;;;11.70;4.47;;;;;;;12.13;56.70;99011.72;4459891;32;20115;-83
2022/09/23 01:55:56;;;;;;;11.07;4.40;;;;;;;12.19;56.59;99014.88;4457301;32;20076;-83
2022/09/23 01:58:38;;;;;;;11.20;4.30;;;;;;;11.88;57.59;99018.37;4458305;32;20118;-84
2022/09/23 02:01:06;;;;;;;11.27;4.82;;;;;;;12.10;57.15;99014.56;4445253;32;20164;-84
2022/09/23 02:03:51;;;;;;;11.50;4.28;;;;;;;12.12;57.02;99013.50;4458261;32;20238;-84
2022/09/23 02:06:22;;;;;;;13.43;4.80;;;;;;;12.09;57.23;99015.47;4457856;32;20080;-84
2022/09/23 02:08:59;;;;;;;11.90;4.57;;;;;;;12.20;56.96;99010.44;4457805;32;20143;-83
2022/09/23 02:11:24;;;;;;;11.23;4.53;;;;;;;12.26;56.88;99014.50;4458075;32;20126;-83
2022/09/23 02:13:59;;;;;;;13.88;4.62;;;;;;;12.29;56.84;99012.56;4458041;32;20118;-83
2022/09/23 02:16:31;;;;;;;11.02;4.37;;;;;;;12.33;56.87;99007.94;4457992;32;20458;-86
2022/09/23 02:19:09;;;;;;;12.10;4.12;;;;;;;12.32;57.01;99004.47;4463862;32;20168;-86
2022/09/23 02:21:39;;;;;;;11.73;4.28;;;;;;;12.32;57.12;98999.19;4473256;32;20108;-86
2022/09/23 02:24:16;;;;;;;11.50;4.30;;;;;;;12.25;57.28;99000.47;4473329;32;20096;-86
2022/09/23 02:26:53;;;;;;;12.57;4.15;;;;;;;12.29;57.27;99001.97;4487591;32;20080;-87
2022/09/23 02:29:25;;;;;;;11.52;4.30;;;;;;;12.07;58.03;99004.16;4473310;32;20164;-86
2022/09/23 02:32:00;;;;;;;10.90;4.28;;;;;;;12.23;57.56;99002.34;4473368;32;20108;-84
2022/09/23 02:34:35;;;;;;;11.30;3.95;;;;;;;12.26;57.43;98999.50;4487463;32;20098;-85
2022/09/23 02:37:00;;;;;;;10.95;4.18;;;;;;;12.27;57.44;98992.47;4473290;32;20076;-86
2022/09/23 02:39:30;;;;;;;11.07;3.75;;;;;;;12.27;57.53;98992.47;4487472;32;20375;-86
2022/09/23 02:42:01;;;;;;;10.38;3.90;;;;;;;12.27;57.59;98998.59;4487397;32;20096;-86
2022/09/23 02:44:27;;;;;;;10.13;3.95;;;;;;;12.16;58.01;98998.34;4473214;32;20111;-86
2022/09/23 02:46:53;;;;;;;9.73;3.60;;;;;;;12.19;57.83;99003.47;4487436;32;20120;-86
2022/09/23 02:49:22;;;;;;;11.57;3.87;;;;;;;12.18;57.92;98999.94;4473193;32;20197;-86
2022/09/23 02:51:47;;;;;;;9.55;3.72;;;;;;;12.24;57.79;98998.75;4487416;32;20119;-86
2022/09/23 02:54:16;;;;;;;10.23;3.67;;;;;;;12.27;57.80;98998.59;4473082;32;20101;-88
2022/09/23 02:56:41;;;;;;;9.50;3.35;;;;;;;12.26;57.90;98998.66;4473212;32;20145;-87
2022/09/23 02:59:08;;;;;;;10.15;3.85;;;;;;;12.25;57.84;98997.81;4478619;32;20448;-88
2022/09/23 03:02:21;;;;;;;10.68;3.40;;;;;;;12.29;57.74;99001.13;4472975;32;20459;-88
2022/09/23 03:05:07;;;;;;;8.50;3.00;;;;;;;12.29;57.80;98994.06;4392480;32;20309;-86
2022/09/23 03:07:49;;;;;;;9.98;3.25;;;;;;;12.29;57.85;98990.56;4392331;32;20369;-87
2022/09/23 03:10:29;;;;;;;8.52;3.00;;;;;;;12.20;58.02;98998.06;4407775;32;20132;-86
2022/09/23 03:13:21;;;;;;;11.20;3.20;;;;;;;12.17;58.09;98994.78;4395118;32;20102;-87
2022/09/23 03:16:06;;;;;;;7.65;2.47;;;;;;;12.18;58.12;98997.31;4395003;32;20524;-87
2022/09/23 03:18:39;;;;;;;9.30;2.83;;;;;;;12.19;58.10;98998.19;4389522;32;20574;-85
2022/09/23 03:21:13;;;;;;;9.30;3.22;;;;;;;12.15;58.24;98999.31;4392596;32;20183;-87
2022/09/23 03:23:40;;;;;;;9.43;3.37;;;;;;;12.16;58.23;98998.34;4367518;32;20202;-87
2022/09/23 03:26:19;;;;;;;8.75;3.20;;;;;;;12.17;58.20;98995.63;4379895;32;20091;-87
2022/09/23 03:28:46;;;;;;;8.88;3.12;;;;;;;12.21;58.21;98998.94;4379926;32;20153;-86
2022/09/23 03:31:12;;;;;;;9.30;2.75;;;;;;;12.16;58.31;99001.84;4379824;32;20126;-85
2022/09/23 03:33:39;;;;;;;9.00;3.00;;;;;;;12.20;58.27;99002.50;4392484;32;20166;-86
2022/09/23 03:39:02;;;;;;;10.45;3.10;;;;;;;12.23;58.24;99010.28;4381855;32;20194;-85
2022/09/23 03:41:38;;;;;;;7.90;2.90;;;;;;;12.23;58.27;99004.13;4468113;32;20104;-84
2022/09/23 03:44:06;;;;;;;9.30;3.10;;;;;;;12.21;58.32;99001.59;4472834;32;20528;-83
2022/09/23 03:46:34;;;;;;;8.95;2.83;;;;;;;12.19;58.41;99003.47;4473038;32;20111;-83
2022/09/23 03:49:08;;;;;;;10.95;3.45;;;;;;;12.20;58.40;99002.50;4472921;32;20542;-86
2022/09/23 03:51:33;;;;;;;9.35;3.17;;;;;;;12.15;58.48;99000.16;4459749;32;20172;-84
2022/09/23 03:53:59;;;;;;;8.45;3.03;;;;;;;12.17;58.38;99000.91;4486975;32;20360;-86
2022/09/23 03:56:24;;;;;;;10.20;3.70;;;;;;;12.17;58.40;99005.34;4472558;32;20080;-86
2022/09/23 03:58:49;;;;;;;9.85;3.30;;;;;;;12.20;58.31;99003.34;4486902;32;20099;-83
2022/09/23 04:01:15;;;;;;;9.13;3.20;;;;;;;12.21;58.26;98991.03;4486775;32;20097;-85
2022/09/23 04:03:41;;;;;;;10.18;3.53;;;;;;;12.20;58.32;98999.88;4472736;32;20096;-87
2022/09/23 04:06:06;;;;;;;8.45;3.25;;;;;;;12.21;58.38;98998.94;4481655;32;20092;-87
2022/09/23 04:08:31;;;;;;;9.98;3.53;;;;;;;12.20;58.40;99006.00;4470455;32;20085;-86
2022/09/23 04:11:01;;;;;;;9.07;3.35;;;;;;;12.19;58.41;99004.31;4484413;32;20116;-87
2022/09/23 04:13:27;;;;;;;9.25;3.30;;;;;;;12.19;58.44;99006.09;4470883;32;20119;-86
2022/09/23 04:15:52;;;;;;;9.10;2.95;;;;;;;12.20;58.40;99013.91;4484519;32;20087;-85
2022/09/23 04:18:18;;;;;;;8.73;3.25;;;;;;;12.11;58.63;99003.91;4469079;32;20118;-84
2022/09/23 04:20:43;;;;;;;8.60;3.33;;;;;;;12.13;58.66;98998.50;4483394;32;20124;-85
2022/09/23 04:23:09;;;;;;;8.93;3.17;;;;;;;12.18;58.52;99010.50;4482544;32;20092;-86
2022/09/23 04:25:34;;;;;;;9.32;3.33;;;;;;;12.13;58.60;99009.06;4470215;32;20100;-86
2022/09/23 04:27:59;;;;;;;9.45;3.00;;;;;;;12.12;58.67;99010.03;4468955;32;20092;-85
2022/09/23 04:30:25;;;;;;;9.38;3.33;;;;;;;12.15;58.60;99009.87;4484540;32;20436;-86
2022/09/23 04:32:51;;;;;;;7.87;2.80;;;;;;;12.16;58.61;99003.63;4485803;32;20403;-87
2022/09/23 04:35:17;;;;;;;8.80;3.17;;;;;;;12.14;58.66;99009.00;4471929;32;20092;-75
2022/09/23 04:37:42;;;;;;;9.20;3.20;;;;;;;12.10;58.86;99007.47;4486458;32;20510;-83
2022/09/23 04:40:08;;;;;;;9.48;3.70;;;;;;;12.14;58.82;99005.50;4472139;32;20109;-82
2022/09/23 04:42:33;;;;;;;7.93;2.72;;;;;;;12.16;58.78;99011.56;4472189;32;20169;-82
2022/09/23 04:44:59;;;;;;;10.07;3.05;;;;;;;12.19;58.73;99011.38;4486287;32;20105;-82
2022/09/23 04:47:25;;;;;;;8.02;2.95;;;;;;;12.18;58.76;99013.16;4471796;32;20101;-83
2022/09/23 04:49:50;;;;;;;8.88;3.33;;;;;;;12.20;58.82;99016.56;4486337;32;20114;-83
2022/09/23 04:52:15;;;;;;;9.68;3.20;;;;;;;12.24;58.80;99013.75;4486177;32;20104;-84
2022/09/23 04:54:41;;;;;;;9.02;2.90;;;;;;;12.27;58.87;99013.59;4486064;32;20140;-84
2022/09/23 04:57:09;;;;;;;10.40;3.40;;;;;;;12.32;58.92;99015.03;4486088;32;20138;-85
2022/09/23 04:59:36;;;;;;;9.00;3.05;;;;;;;12.29;59.16;99011.72;4486002;32;20124;-85
2022/09/23 05:02:01;;;;;;;8.77;3.05;;;;;;;12.32;59.19;99019.44;4486257;32;20100;-83
2022/09/23 05:04:26;;;;;;;8.02;2.78;;;;;;;12.38;58.83;99016.44;4486088;32;20149;-85
2022/09/23 05:06:52;;;;;;;7.90;2.65;;;;;;;12.56;58.27;99028.59;4471633;32;20111;-89
2022/09/23 05:09:18;;;;;;;7.68;2.62;;;;;;;12.65;58.09;99023.69;4486025;32;20124;-83
2022/09/23 05:11:44;;;;;;;8.13;2.67;;;;;;;12.76;57.94;99024.75;4471636;32;20537;-84
2022/09/23 05:14:10;;;;;;;8.68;3.17;;;;;;;12.82;57.95;99025.31;4471793;32;20118;-82
2022/09/23 05:16:35;;;;;;;8.38;3.20;;;;;;;12.92;57.71;99022.06;4485837;32;20084;-83
2022/09/23 05:19:02;;;;;;;7.50;2.55;;;;;;;12.90;57.44;99023.94;4485978;32;20138;-83
2022/09/23 05:21:27;;;;;;;10.32;2.62;;;;;;;13.07;57.12;99022.88;4486140;32;20151;-84
2022/09/23 05:23:55;;;;;;;8.70;3.10;;;;;;;13.25;56.85;99031.50;4485842;32;20096;-85
2022/09/23 05:26:23;;;;;;;8.05;3.25;;;;;;;13.28;56.96;99036.59;4485820;32;20190;-85
2022/09/23 05:28:48;;;;;;;9.20;2.65;;;;;;;13.32;55.75;99038.13;4485807;32;20104;-86
2022/09/23 05:31:16;;;;;;;7.75;2.67;;;;;;;13.23;55.50;99041.34;4487928;32;20092;-86
2022/09/23 05:33:44;;;;;;;7.70;2.90;;;;;;;13.41;55.75;99038.53;4488043;32;20135;-87
2022/09/23 05:36:11;;;;;;;10.15;2.90;;;;;;;13.36;54.77;99036.16;4460708;32;20096;-84
2022/09/23 05:38:36;;;;;;;10.32;3.12;;;;;;;13.63;54.36;99040.69;4473731;32;20114;-85
2022/09/23 05:41:10;;;;;;;11.60;2.90;;;;;;;13.69;54.16;99032.34;4484919;32;20124;-85
2022/09/23 05:43:36;;;;;;;7.85;2.37;;;;;;;13.89;53.44;99042.53;4471374;32;20084;-83
2022/09/23 05:46:05;;;;;;;8.35;2.70;;;;;;;14.05;53.13;99037.06;4487496;32;20437;-84
2022/09/23 05:48:31;;;;;;;7.70;2.70;;;;;;;14.21;52.84;99036.06;4485907;32;20104;-83
2022/09/23 05:50:58;;;;;;;9.40;3.03;;;;;;;14.32;52.65;99031.78;4486706;32;20119;-84
2022/09/23 05:53:23;;;;;;;9.23;3.00;;;;;;;14.45;52.64;99034.47;4485724;32;20156;-83
2022/09/23 05:55:49;;;;;;;8.98;2.80;;;;;;;14.58;52.08;99034.50;4473185;32;20088;-83
2022/09/23 05:58:14;;;;;;;9.32;3.00;;;;;;;14.37;51.57;99034.13;4487203;32;20126;-83
2022/09/23 06:00:41;;;;;;;9.70;3.35;;;;;;;14.50;50.93;99037.62;4487355;32;20078;-83
2022/09/23 06:03:12;;;;;;;8.55;2.90;;;;;;;14.33;52.90;99028.19;4473078;32;20131;-83
2022/09/23 06:05:37;;;;;;;10.15;3.15;;;;;;;13.84;54.53;99044.59;4473242;32;20367;-83
2022/09/23 06:08:03;;;;;;;9.10;3.37;;;;;;;14.35;53.83;99034.22;4487532;32;20120;-83
2022/09/23 06:10:28;;;;;;;9.10;3.22;;;;;;;14.61;53.49;99036.12;4487717;32;20088;-83
2022/09/23 06:12:53;;;;;;;9.70;3.67;;;;;;;14.83;53.85;99040.81;4473365;32;20136;-83
2022/09/23 06:15:19;;;;;;;8.60;3.00;;;;;;;14.96;52.84;99038.19;4487506;32;20099;-83
2022/09/23 06:17:45;;;;;;;9.45;2.85;;;;;;;15.01;52.50;99038.69;4487677;32;20145;-83
2022/09/23 06:20:10;;;;;;;10.35;3.03;;;;;;;15.03;52.63;99042.97;4487482;32;20446;-83
2022/09/23 06:22:35;;;;;;;8.77;3.22;;;;;;;14.75;52.09;99047.47;4487589;32;20084;-83
2022/09/23 06:25:01;;;;;;;7.70;2.90;;;;;;;14.99;51.97;99038.81;4487430;32;20080;-83
2022/09/23 06:27:26;;;;;;;11.57;3.50;;;;;;;14.92;53.06;99045.50;4487358;32;20096;-83
2022/09/23 06:29:52;;;;;;;11.15;3.83;;;;;;;15.00;53.53;99043.16;4487614;32;20469;-83
2022/09/23 06:32:18;;;;;;;8.80;3.10;;;;;;;14.99;52.31;99041.47;4487481;32;20080;-83
2022/09/23 06:34:44;;;;;;;8.82;3.10;;;;;;;15.26;51.30;99041.37;4473079;32;20384;-83
2022/09/23 06:37:10;;;;;;;8.73;3.15;;;;;;;15.30;51.20;99044.66;4487525;32;20112;-83
2022/09/23 06:39:36;;;;;;;8.15;2.67;;;;;;;15.37;50.46;99045.06;4487426;32;20123;-83
2022/09/23 06:42:01;;;;;;;9.07;3.08;;;;;;;15.49;50.18;99049.50;4487016;32;20128;-83
2022/09/23 06:44:27;;;;;;;6.60;2.42;;;;;;;15.57;50.04;99055.13;4459964;32;20110;-83
2022/09/23 06:46:52;;;;;;;12.73;2.72;;;;;;;15.67;49.43;99050.03;4487502;32;20111;-83
2022/09/23 06:49:20;;;;;;;8.45;3.00;;;;;;;15.76;48.95;99049.41;4487237;32;20088;-83
2022/09/23 06:51:45;;;;;;;11.05;4.22;;;;;;;15.88;48.49;99052.97;4487421;32;20113;-83
2022/09/23 06:54:12;;;;;;;11.38;3.65;;;;;;;15.75;48.66;99057.47;4473114;32;20107;-83
2022/09/23 06:56:38;;;;;;;10.80;4.03;;;;;;;15.53;49.99;99065.13;4460112;32;20105;-83
2022/09/23 06:59:04;;;;;;;10.48;3.55;;;;;;;15.82;49.34;99064.91;4487478;32;20123;-83
2022/09/23 07:01:29;;;;;;;11.65;4.32;;;;;;;15.84;49.26;99051.47;4473515;32;20088;-83
2022/09/23 07:03:54;;;;;;;11.95;4.70;;;;;;;15.85;48.82;99054.03;4459995;32;20394;-83
2022/09/23 07:06:20;;;;;;;10.65;4.40;;;;;;;15.91;49.00;99055.41;4487521;32;20104;-83
2022/09/23 07:08:46;;;;;;;12.82;4.97;;;;;;;16.03;48.96;99061.63;4487336;32;20396;-83
2022/09/23 07:11:12;;;;;;;13.00;5.80;;;;;;;15.91;48.74;99058.06;4459991;32;20084;-83
2022/09/23 07:13:38;;;;;;;12.30;5.65;;;;;;;15.98;48.84;99053.16;4473206;32;20123;-83
2022/09/23 07:16:04;;;;;;;13.07;5.47;;;;;;;16.03;48.63;99049.22;4473215;32;20103;-83
2022/09/23 07:18:32;;;;;;;13.43;5.47;;;;;;;16.00;48.86;99056.56;4487415;32;20367;-82
2022/09/23 07:21:07;;;;;;;13.77;5.40;;;;;;;16.11;47.74;99060.12;4473197;32;20084;-83
2022/09/23 07:23:33;;;;;;;12.93;4.87;;;;;;;16.12;47.92;99063.63;4473031;32;20076;-83
2022/09/23 07:25:59;;;;;;;11.93;4.53;;;;;;;16.19;47.82;99064.88;4487242;32;20432;-83
2022/09/23 07:28:27;;;;;;;11.18;4.35;;;;;;;16.22;48.17;99063.78;4487317;32;20088;-83
2022/09/23 07:30:53;;;;;;;10.80;4.15;;;;;;;16.21;48.13;99062.94;4487494;32;20587;-83
2022/09/23 07:33:18;;;;;;;12.45;4.57;;;;;;;16.29;47.34;99065.88;4487243;32;20077;-83
2022/09/23 07:35:44;;;;;;;10.70;4.70;;;;;;;16.40;47.48;99066.91;4487251;32;20485;-83
2022/09/23 07:38:10;;;;;;;11.98;4.43;;;;;;;16.40;47.60;99066.91;4487253;32;20447;-83
2022/09/23 07:40:36;;;;;;;12.77;4.82;;;;;;;16.45;47.63;99060.28;4487121;32;20089;-83
2022/09/23 07:43:03;;;;;;;12.75;4.47;;;;;;;16.38;47.49;99060.84;4487075;32;20072;-83
2022/09/23 07:45:30;;;;;;;12.55;4.22;;;;;;;16.52;47.08;99064.19;4487172;32;20677;-83
2022/09/23 07:47:56;;;;;;;10.60;4.15;;;;;;;16.56;46.82;99063.97;4473035;32;20091;-83
2022/09/23 07:50:22;;;;;;;9.80;3.95;;;;;;;16.57;46.43;99063.00;4487043;32;20446;-83
2022/09/23 07:52:51;;;;;;;11.07;4.28;;;;;;;16.50;46.96;99063.44;4485734;32;20073;-83
2022/09/23 07:55:17;;;;;;;10.88;4.22;;;;;;;16.60;46.69;99060.09;4486725;32;20092;-83
2022/09/23 07:57:42;;;;;;;11.80;4.90;;;;;;;16.46;46.45;99062.00;4486952;32;20160;-83
2022/09/23 08:00:08;;;;;;;9.77;4.03;;;;;;;16.22;47.01;99066.44;4486951;32;20416;-83
2022/09/23 08:02:34;;;;;;;11.02;4.10;;;;;;;15.88;48.33;99074.22;4486896;32;20088;-83
2022/09/23 08:05:00;;;;;;;10.50;4.03;;;;;;;16.26;47.98;99067.91;4472529;32;20444;-83
2022/09/23 08:07:25;;;;;;;11.20;4.03;;;;;;;15.58;49.60;99080.72;4486762;32;20076;-83
2022/09/23 08:09:51;;;;;;;10.27;4.07;;;;;;;15.90;48.54;99072.31;4472583;32;20102;-83
2022/09/23 08:12:17;;;;;;;14.13;4.00;;;;;;;16.10;47.86;99071.69;4486313;32;20482;-83
2022/09/23 08:14:43;;;;;;;11.23;4.22;;;;;;;15.69;48.59;99078.16;4472353;32;20115;-83
2022/09/23 08:17:08;;;;;;;9.90;4.20;;;;;;;15.69;48.91;99079.97;4486847;32;20085;-83
2022/09/23 08:19:34;;;;;;;10.43;4.10;;;;;;;15.75;48.86;99074.25;4472252;32;20138;-83
2022/09/23 08:21:59;;;;;;;10.32;4.40;;;;;;;16.03;48.18;99066.94;4486638;32;20081;-83
2022/09/23 08:24:25;;;;;;;9.15;3.47;;;;;;;16.14;47.68;99067.00;4472350;32;20093;-83
2022/09/23 08:26:54;;;;;;;9.68;3.08;;;;;;;16.28;46.75;99068.66;4486635;32;20092;-83
2022/09/23 08:29:24;;;;;;;10.57;3.90;;;;;;;16.30;46.26;99069.38;4486520;32;20084;-83
2022/09/23 08:31:51;;;;;;;10.77;4.25;;;;;;;16.30;47.09;99061.41;4473073;32;20068;-83
2022/09/23 08:34:17;;;;;;;13.77;4.03;;;;;;;16.40;47.11;99067.78;4486757;32;20101;-83
2022/09/23 08:36:43;;;;;;;11.32;4.18;;;;;;;16.40;47.23;99066.91;4472530;32;20092;-83
2022/09/23 08:39:13;;;;;;;11.25;4.15;;;;;;;16.35;47.43;99061.09;4472485;32;20106;-83
2022/09/23 08:42:11;;;;;;;10.38;4.15;;;;;;;16.21;48.06;99060.28;4472160;32;20072;-83
2022/09/23 08:44:44;;;;;;;10.25;4.07;;;;;;;16.46;47.27;99056.66;4472172;32;20194;-83
2022/09/23 08:47:28;;;;;;;11.95;4.20;;;;;;;16.52;46.33;99058.03;4486395;32;20096;-83
2022/09/23 08:50:12;;;;;;;12.50;5.18;;;;;;;16.48;46.77;99065.38;4472143;32;20088;-83
2022/09/23 08:52:48;;;;;;;10.55;4.55;;;;;;;15.90;47.61;99059.88;4486610;32;20068;-83
2022/09/23 08:55:14;;;;;;;11.32;4.22;;;;;;;16.35;47.24;99058.44;4472112;32;20097;-83
2022/09/23 08:58:08;;;;;;;11.25;4.68;;;;;;;16.48;46.92;99059.22;4472076;32;20104;-83
2022/09/23 09:00:40;;;;;;;10.45;4.25;;;;;;;16.57;46.13;99063.00;4471873;32;20085;-83
2022/09/23 09:03:20;;;;;;;10.40;4.75;;;;;;;16.54;46.67;99056.09;4471976;32;20103;-83
2022/09/23 09:05:46;;;;;;;12.55;5.05;;;;;;;16.60;46.11;99060.09;4473627;32;20521;-83
2022/09/23 09:08:13;;;;;;;13.23;4.78;;;;;;;16.39;46.62;99058.06;4474003;32;20454;-83
2022/09/23 09:10:42;;;;;;;13.35;4.82;;;;;;;16.51;46.45;99057.19;4488150;32;20088;-83
2022/09/23 09:13:34;;;;;;;13.48;5.28;;;;;;;16.64;46.44;99053.59;4461110;32;20193;-83
2022/09/23 09:16:18;;;;;;;11.55;5.15;;;;;;;16.25;47.17;99060.91;4488429;32;20103;-84
2022/09/23 09:18:54;;;;;;;13.77;5.50;;;;;;;15.56;49.13;99064.06;4473744;32;20118;-84
2022/09/23 09:21:28;;;;;;;16.15;5.05;;;;;;;15.82;47.98;99064.03;4488067;32;20067;-84
2022/09/23 09:23:56;;;;;;;11.75;5.07;;;;;;;15.95;47.86;99056.03;4473928;32;20087;-83
2022/09/23 09:26:24;;;;;;;10.52;4.50;;;;;;;16.32;47.47;99056.81;4473805;32;20156;-83
2022/09/23 09:29:13;;;;;;;13.27;5.57;;;;;;;16.62;47.41;99044.88;4473757;32;20463;-83
2022/09/23 09:31:42;;;;;;;13.13;5.53;;;;;;;16.42;46.61;99051.72;4473877;32;20077;-84
2022/09/23 09:34:23;;;;;;;10.98;5.12;;;;;;;16.45;46.33;99048.81;4474039;32;20097;-84
2022/09/23 09:37:05;;;;;;;11.00;4.60;;;;;;;16.88;45.70;99038.47;4487917;32;20107;-83
2022/09/23 09:39:30;;;;;;;11.77;4.85;;;;;;;17.10;45.69;99042.97;4474022;32;20147;-84
2022/09/23 09:41:58;;;;;;;11.48;4.80;;;;;;;16.86;45.84;99040.41;4473614;32;20443;-84
2022/09/23 09:44:58;;;;;;;12.27;5.18;;;;;;;17.25;45.35;99035.59;4487942;32;20145;-84
2022/09/23 09:47:27;;;;;;;13.85;5.10;;;;;;;17.10;44.82;99031.47;4473732;32;20127;-83
2022/09/23 09:49:52;;;;;;;12.60;4.75;;;;;;;17.45;44.60;99030.53;4487853;32;20092;-83
2022/09/23 09:52:24;;;;;;;12.25;4.87;;;;;;;17.54;44.89;99028.94;4487847;32;20170;-84
2022/09/23 09:54:50;;;;;;;11.45;4.97;;;;;;;17.47;44.43;99025.94;4473669;32;20099;-84
2022/09/23 09:57:29;;;;;;;12.07;5.28;;;;;;;17.76;44.09;99018.25;4473559;32;20417;-84
2022/09/23 09:59:55;;;;;;;11.50;4.90;;;;;;;17.44;43.55;99023.50;4487859;32;20478;-83
2022/09/23 10:02:27;;;;;;;10.95;4.70;;;;;;;17.64;43.54;99017.44;4473340;32;20104;-83
2022/09/23 10:04:56;;;;;;;12.27;4.97;;;;;;;17.76;43.48;99018.25;4473572;32;20072;-84
2022/09/23 10:07:28;;;;;;;11.10;4.40;;;;;;;17.64;43.36;99020.09;4473512;32;20118;-84
2022/09/23 10:09:53;;;;;;;11.07;4.68;;;;;;;17.84;43.32;99017.69;4473707;32;20460;-84
2022/09/23 10:12:23;;;;;;;11.95;4.85;;;;;;;17.89;43.47;99018.16;4473493;32;20106;-84
2022/09/23 10:14:54;;;;;;;13.13;4.75;;;;;;;17.73;43.51;99015.88;4473432;32;20164;-83
2022/09/23 10:17:41;;;;;;;12.07;4.72;;;;;;;18.07;43.45;99015.81;4459582;32;20400;-84
2022/09/23 10:20:08;;;;;;;10.20;4.40;;;;;;;18.27;42.71;99008.81;4487126;32;20099;-83
2022/09/23 10:22:41;;;;;;;11.43;4.55;;;;;;;18.28;42.50;99016.69;4473715;32;20088;-84
2022/09/23 10:25:09;;;;;;;11.40;4.50;;;;;;;17.99;43.29;99019.09;4473864;32;20143;-84
2022/09/23 10:27:35;;;;;;;10.18;4.40;;;;;;;18.22;42.63;99019.03;4487822;32;20164;-83
2022/09/23 10:30:11;;;;;;;12.02;5.05;;;;;;;18.36;42.27;99017.87;4473331;32;20495;-84
2022/09/23 10:32:43;;;;;;;11.20;4.45;;;;;;;18.36;42.41;99020.56;4473426;32;20110;-84
2022/09/23 10:35:08;;;;;;;10.55;4.20;;;;;;;17.90;42.49;99025.16;4487726;32;20401;-84
2022/09/23 10:37:45;;;;;;;9.95;3.95;;;;;;;18.23;42.56;99028.72;4487624;32;20104;-83
2022/09/23 10:49:31;;;;;;;11.90;4.12;;;;;;;18.16;41.31;99012.38;4487603;32;20115;-84
2022/09/23 10:52:15;;;;;;;11.60;3.85;;;;;;;18.59;40.96;99015.97;4487551;32;20084;-83
2022/09/23 10:55:28;;;;;;;9.48;3.75;;;;;;;18.58;40.95;99015.13;4487408;32;20068;-83
2022/09/23 10:58:03;;;;;;;10.20;4.30;;;;;;;18.91;40.23;99007.06;4473570;32;20079;-83
2022/09/23 11:00:28;;;;;;;10.80;3.87;;;;;;;19.04;40.16;99008.56;4487560;32;20118;-84
2022/09/23 11:03:18;;;;;;;9.52;4.00;;;;;;;19.29;39.90;99008.25;4487429;32;20076;-84
2022/09/23 11:06:14;;;;;;;10.93;3.92;;;;;;;19.41;39.31;98997.34;4487441;32;20081;-83
2022/09/23 11:09:14;;;;;;;10.05;3.50;;;;;;;19.60;39.34;98996.56;4473100;32;20099;-83
2022/09/23 11:11:39;;;;;;;9.93;3.83;;;;;;;19.83;38.66;98997.19;4487647;32;20108;-83
2022/09/23 11:14:15;;;;;;;10.50;3.72;;;;;;;19.78;38.10;98983.44;4487371;32;20141;-83
2022/09/23 11:16:57;;;;;;;10.45;4.10;;;;;;;20.08;38.34;98981.63;4487280;32;20104;-83
2022/09/23 11:19:44;;;;;;;10.05;4.10;;;;;;;20.16;37.44;98981.75;4487254;32;20123;-83
2022/09/23 11:22:24;;;;;;;11.12;4.10;;;;;;;20.08;37.62;98983.47;4472843;32;20145;-83
2022/09/23 11:25:15;;;;;;;9.90;4.00;;;;;;;20.13;38.09;98976.72;4487234;32;20118;-83
2022/09/23 11:27:56;;;;;;;9.02;3.55;;;;;;;20.21;38.12;98974.19;4472958;32;20663;-83
2022/09/23 11:30:29;;;;;;;10.10;3.72;;;;;;;20.15;37.66;98971.22;4487223;32;20088;-83
2022/09/23 11:33:07;;;;;;;10.40;3.72;;;;;;;20.07;37.78;98968.38;4472900;32;20096;-83
2022/09/23 11:35:54;;;;;;;9.75;3.83;;;;;;;20.09;38.11;98964.59;4487185;32;20099;-83
2022/09/23 11:38:25;;;;;;;9.77;3.40;;;;;;;20.06;37.95;98977.41;4473278;32;20495;-83
2022/09/23 11:41:13;;;;;;;9.80;3.60;;;;;;;19.93;37.93;98967.81;4473570;32;20068;-83
2022/09/23 11:43:40;;;;;;;12.70;4.12;;;;;;;19.70;37.95;98969.00;4473258;32;20101;-83
2022/09/23 11:46:17;;;;;;;10.32;3.67;;;;;;;19.59;38.72;98957.47;4487324;32;20110;-83
2022/09/23 11:49:17;;;;;;;8.75;3.20;;;;;;;19.44;38.37;98959.66;4473101;32;20071;-83
2022/09/23 11:52:05;;;;;;;10.40;3.17;;;;;;;19.43;37.96;98951.78;4407383;32;20102;-83
2022/09/23 11:55:19;;;;;;;9.13;3.33;;;;;;;19.33;39.48;98958.91;4394630;32;20098;-83
2022/09/23 11:57:53;;;;;;;8.55;3.10;;;;;;;19.28;39.88;98963.81;4362311;32;20485;-83
2022/09/23 12:00:20;;;;;;;9.85;3.33;;;;;;;19.09;40.54;98959.25;4362218;32;20296;-83